createdAt,value
2019-04-21T00:00:06.000Z,982.4
2019-04-21T00:01:28.000Z,982.4
2019-04-21T00:02:50.000Z,982.3
2019-04-21T00:04:13.000Z,982.3
2019-04-21T00:05:26.000Z,982.3
2019-04-21T00:06:39.000Z,982.4
2019-04-21T00:08:01.000Z,982.3
2019-04-21T00:10:46.000Z,982.3
2019-04-21T00:12:08.000Z,982.2
2019-04-21T00:13:30.000Z,982.2
2019-04-21T00:14:53.000Z,982.2
2019-04-21T00:16:15.000Z,982.2
2019-04-21T00:17:37.000Z,982.2
2019-04-21T00:18:59.000Z,982.2
2019-04-21T00:21:25.000Z,982.1
2019-04-21T00:22:48.000Z,982.1
2019-04-21T00:24:10.000Z,982.1
2019-04-21T00:25:32.000Z,982.1
2019-04-21T00:26:55.000Z,982.1
2019-04-21T00:28:17.000Z,982.1
2019-04-21T00:29:39.000Z,982.1
2019-04-21T00:31:02.000Z,982.1
2019-04-21T00:32:24.000Z,982.1
2019-04-21T00:33:46.000Z,982.1
2019-04-21T00:34:59.000Z,982.1
2019-04-21T00:36:12.000Z,982.1
2019-04-21T00:37:34.000Z,982.1
2019-04-21T00:38:57.000Z,982.1
2019-04-21T00:40:19.000Z,982.1
2019-04-21T00:41:41.000Z,982
2019-04-21T00:43:04.000Z,982
2019-04-21T00:44:26.000Z,982
2019-04-21T00:45:48.000Z,982
2019-04-21T00:47:11.000Z,982
2019-04-21T00:48:33.000Z,982
2019-04-21T00:49:46.000Z,981.9
2019-04-21T00:50:59.000Z,981.9
2019-04-21T00:52:21.000Z,981.9
2019-04-21T00:53:44.000Z,981.8
2019-04-21T00:55:06.000Z,981.8
2019-04-21T00:57:51.000Z,981.8
2019-04-21T00:59:13.000Z,981.8
2019-04-21T01:00:35.000Z,981.8
2019-04-21T01:01:57.000Z,981.8
2019-04-21T01:03:20.000Z,981.8
2019-04-21T01:04:33.000Z,981.8
2019-04-21T01:05:46.000Z,981.8
2019-04-21T01:08:30.000Z,981.8
2019-04-21T01:09:53.000Z,981.8
2019-04-21T01:11:15.000Z,981.7
2019-04-21T01:12:37.000Z,981.7
2019-04-21T01:14:00.000Z,981.8
2019-04-21T01:15:22.000Z,981.8
2019-04-21T01:16:44.000Z,981.7
2019-04-21T01:18:07.000Z,981.7
2019-04-21T01:19:20.000Z,981.7
2019-04-21T01:20:32.000Z,981.7
2019-04-21T01:21:55.000Z,981.7
2019-04-21T01:24:39.000Z,981.7
2019-04-21T01:27:24.000Z,981.7
2019-04-21T01:30:09.000Z,981.7
2019-04-21T01:31:31.000Z,981.7
2019-04-21T01:35:19.000Z,981.7
2019-04-21T01:36:42.000Z,981.6
2019-04-21T01:38:04.000Z,981.6
2019-04-21T01:39:26.000Z,981.6
2019-04-21T01:40:49.000Z,981.6
2019-04-21T01:42:11.000Z,981.6
2019-04-21T01:43:33.000Z,981.6
2019-04-21T01:44:55.000Z,981.6
2019-04-21T01:47:40.000Z,981.6
2019-04-21T01:48:53.000Z,981.6
2019-04-21T01:50:06.000Z,981.5
2019-04-21T01:52:51.000Z,981.5
2019-04-21T01:54:13.000Z,981.4
2019-04-21T01:56:58.000Z,981.5
2019-04-21T02:02:27.000Z,981.4
2019-04-21T02:03:40.000Z,981.4
2019-04-21T02:04:53.000Z,981.4
2019-04-21T02:06:15.000Z,981.4
2019-04-21T02:07:37.000Z,981.4
2019-04-21T02:09:00.000Z,981.4
2019-04-21T02:10:22.000Z,981.4
2019-04-21T02:11:44.000Z,981.4
2019-04-21T02:13:07.000Z,981.4
2019-04-21T02:14:29.000Z,981.4
2019-04-21T02:15:51.000Z,981.4
2019-04-21T02:18:27.000Z,981.4
2019-04-21T02:19:40.000Z,981.4
2019-04-21T02:21:02.000Z,981.4
2019-04-21T02:25:09.000Z,981.4
2019-04-21T02:26:31.000Z,981.3
2019-04-21T02:27:53.000Z,981.3
2019-04-21T02:29:16.000Z,981.3
2019-04-21T02:32:00.000Z,981.3
2019-04-21T02:33:13.000Z,981.3
2019-04-21T02:34:26.000Z,981.3
2019-04-21T02:37:11.000Z,981.3
2019-04-21T02:38:33.000Z,981.3
2019-04-21T02:39:56.000Z,981.3
2019-04-21T02:42:40.000Z,981.3
2019-04-21T02:45:25.000Z,981.2
2019-04-21T02:46:47.000Z,981.2
2019-04-21T02:50:35.000Z,981.2
2019-04-21T02:51:58.000Z,981.2
2019-04-21T02:53:20.000Z,981.2
2019-04-21T02:54:42.000Z,981.2
2019-04-21T02:56:05.000Z,981.2
2019-04-21T02:57:27.000Z,981.2
2019-04-21T02:58:49.000Z,981.1
2019-04-21T03:00:12.000Z,981.1
2019-04-21T03:02:47.000Z,981.1
2019-04-21T03:04:00.000Z,981.1
2019-04-21T03:05:22.000Z,981.1
2019-04-21T03:06:45.000Z,981
2019-04-21T03:08:07.000Z,981.1
2019-04-21T03:09:29.000Z,981
2019-04-21T03:10:51.000Z,981.1
2019-04-21T03:12:14.000Z,981
2019-04-21T03:13:36.000Z,981
2019-04-21T03:14:58.000Z,981
2019-04-21T03:17:34.000Z,981
2019-04-21T03:18:47.000Z,981
2019-04-21T03:21:31.000Z,981
2019-04-21T03:22:54.000Z,981
2019-04-21T03:25:38.000Z,981
2019-04-21T03:27:01.000Z,981
2019-04-21T03:28:23.000Z,981
2019-04-21T03:31:08.000Z,981
2019-04-21T03:32:20.000Z,981
2019-04-21T03:34:56.000Z,980.9
2019-04-21T03:36:18.000Z,980.9
2019-04-21T03:37:40.000Z,981
2019-04-21T03:39:03.000Z,980.9
2019-04-21T03:40:25.000Z,980.9
2019-04-21T03:41:47.000Z,980.9
2019-04-21T03:44:32.000Z,980.9
2019-04-21T03:45:54.000Z,980.9
2019-04-21T03:47:07.000Z,980.9
2019-04-21T03:48:20.000Z,980.8
2019-04-21T03:49:43.000Z,980.8
2019-04-21T03:51:05.000Z,980.8
2019-04-21T03:52:27.000Z,980.8
2019-04-21T03:55:12.000Z,980.8
2019-04-21T03:56:34.000Z,980.8
2019-04-21T03:57:56.000Z,980.8
2019-04-21T03:59:19.000Z,980.9
2019-04-21T04:00:41.000Z,980.8
2019-04-21T04:01:54.000Z,980.8
2019-04-21T04:04:29.000Z,980.8
2019-04-21T04:05:52.000Z,980.8
2019-04-21T04:08:36.000Z,980.8
2019-04-21T04:09:59.000Z,980.8
2019-04-21T04:11:21.000Z,980.8
2019-04-21T04:12:43.000Z,980.8
2019-04-21T04:14:06.000Z,980.8
2019-04-21T04:15:28.000Z,980.8
2019-04-21T04:16:41.000Z,980.8
2019-04-21T04:17:54.000Z,980.8
2019-04-21T04:19:16.000Z,980.8
2019-04-21T04:20:38.000Z,980.8
2019-04-21T04:23:23.000Z,980.8
2019-04-21T04:24:45.000Z,980.8
2019-04-21T04:26:08.000Z,980.8
2019-04-21T04:27:30.000Z,980.8
2019-04-21T04:30:15.000Z,980.7
2019-04-21T04:34:03.000Z,980.8
2019-04-21T04:36:47.000Z,980.8
2019-04-21T04:38:10.000Z,980.7
2019-04-21T04:39:32.000Z,980.8
2019-04-21T04:40:54.000Z,980.8
2019-04-21T04:43:39.000Z,980.8
2019-04-21T04:45:01.000Z,980.8
2019-04-21T04:46:14.000Z,980.8
2019-04-21T04:47:27.000Z,980.8
2019-04-21T04:48:50.000Z,980.8
2019-04-21T04:50:12.000Z,980.7
2019-04-21T04:51:34.000Z,980.8
2019-04-21T04:54:19.000Z,980.7
2019-04-21T04:55:41.000Z,980.8
2019-04-21T04:57:04.000Z,980.7
2019-04-21T04:58:26.000Z,980.7
2019-04-21T04:59:48.000Z,980.7
2019-04-21T05:01:01.000Z,980.8
2019-04-21T05:03:36.000Z,980.8
2019-04-21T05:04:59.000Z,980.7
2019-04-21T05:06:21.000Z,980.7
2019-04-21T05:07:43.000Z,980.7
2019-04-21T05:09:06.000Z,980.7
2019-04-21T05:10:28.000Z,980.7
2019-04-21T05:11:50.000Z,980.7
2019-04-21T05:13:13.000Z,980.7
2019-04-21T05:14:35.000Z,980.7
2019-04-21T05:17:01.000Z,980.8
2019-04-21T05:18:23.000Z,980.7
2019-04-21T05:19:45.000Z,980.8
2019-04-21T05:21:08.000Z,980.8
2019-04-21T05:22:30.000Z,980.8
2019-04-21T05:23:52.000Z,980.8
2019-04-21T05:25:15.000Z,980.8
2019-04-21T05:26:37.000Z,980.8
2019-04-21T05:29:22.000Z,980.8
2019-04-21T05:30:35.000Z,980.8
2019-04-21T05:31:48.000Z,980.8
2019-04-21T05:33:10.000Z,980.8
2019-04-21T05:34:32.000Z,980.8
2019-04-21T05:37:17.000Z,980.8
2019-04-21T05:38:39.000Z,980.8
2019-04-21T05:41:24.000Z,980.8
2019-04-21T05:42:46.000Z,980.7
2019-04-21T05:44:09.000Z,980.7
2019-04-21T05:45:21.000Z,980.7
2019-04-21T05:46:34.000Z,980.7
2019-04-21T05:47:57.000Z,980.7
2019-04-21T05:49:19.000Z,980.7
2019-04-21T05:50:41.000Z,980.7
2019-04-21T05:52:04.000Z,980.7
2019-04-21T05:53:26.000Z,980.7
2019-04-21T05:54:48.000Z,980.7
2019-04-21T05:56:11.000Z,980.7
2019-04-21T05:57:33.000Z,980.7
2019-04-21T05:58:55.000Z,980.7
2019-04-21T06:00:08.000Z,980.7
2019-04-21T06:05:28.000Z,980.7
2019-04-21T06:06:50.000Z,980.7
2019-04-21T06:08:13.000Z,980.7
2019-04-21T06:10:57.000Z,980.8
2019-04-21T06:12:20.000Z,980.7
2019-04-21T06:13:42.000Z,980.8
2019-04-21T06:16:08.000Z,980.7
2019-04-21T06:18:53.000Z,980.7
2019-04-21T06:20:15.000Z,980.7
2019-04-21T06:21:37.000Z,980.7
2019-04-21T06:23:00.000Z,980.7
2019-04-21T06:24:22.000Z,980.7
2019-04-21T06:25:44.000Z,980.7
2019-04-21T06:27:07.000Z,980.6
2019-04-21T06:28:29.000Z,980.7
2019-04-21T06:30:55.000Z,980.7
2019-04-21T06:32:17.000Z,980.7
2019-04-21T06:35:02.000Z,980.7
2019-04-21T06:36:24.000Z,980.7
2019-04-21T06:37:46.000Z,980.7
2019-04-21T06:40:31.000Z,980.7
2019-04-21T06:43:16.000Z,980.7
2019-04-21T06:44:29.000Z,980.7
2019-04-21T06:45:42.000Z,980.7
2019-04-21T06:47:04.000Z,980.7
2019-04-21T06:48:26.000Z,980.7
2019-04-21T06:51:11.000Z,980.7
2019-04-21T06:52:33.000Z,980.7
2019-04-21T06:53:55.000Z,980.6
2019-04-21T06:55:18.000Z,980.6
2019-04-21T06:58:02.000Z,980.7
2019-04-21T06:59:15.000Z,980.6
2019-04-21T07:00:28.000Z,980.6
2019-04-21T07:01:51.000Z,980.6
2019-04-21T07:03:13.000Z,980.6
2019-04-21T07:04:35.000Z,980.6
2019-04-21T07:05:58.000Z,980.6
2019-04-21T07:07:20.000Z,980.6
2019-04-21T07:08:42.000Z,980.6
2019-04-21T07:11:27.000Z,980.5
2019-04-21T07:12:49.000Z,980.5
2019-04-21T07:14:02.000Z,980.4
2019-04-21T07:15:15.000Z,980.5
2019-04-21T07:16:37.000Z,980.5
2019-04-21T07:18:00.000Z,980.5
2019-04-21T07:19:22.000Z,980.5
2019-04-21T07:20:44.000Z,980.5
2019-04-21T07:22:07.000Z,980.5
2019-04-21T07:24:51.000Z,980.4
2019-04-21T07:26:14.000Z,980.5
2019-04-21T07:27:36.000Z,980.4
2019-04-21T07:30:02.000Z,980.4
2019-04-21T07:31:24.000Z,980.4
2019-04-21T07:32:46.000Z,980.3
2019-04-21T07:34:09.000Z,980.4
2019-04-21T07:35:31.000Z,980.3
2019-04-21T07:38:16.000Z,980.3
2019-04-21T07:39:38.000Z,980.4
2019-04-21T07:42:23.000Z,980.3
2019-04-21T07:44:49.000Z,980.3
2019-04-21T07:46:11.000Z,980.4
2019-04-21T07:47:33.000Z,980.3
2019-04-21T07:48:56.000Z,980.3
2019-04-21T07:50:18.000Z,980.3
2019-04-21T07:51:40.000Z,980.4
2019-04-21T07:53:03.000Z,980.4
2019-04-21T07:54:25.000Z,980.4
2019-04-21T07:55:47.000Z,980.4
2019-04-21T07:57:09.000Z,980.3
2019-04-21T07:58:22.000Z,980.3
2019-04-21T07:59:35.000Z,980.4
2019-04-21T08:00:58.000Z,980.4
2019-04-21T08:02:20.000Z,980.4
2019-04-21T08:03:42.000Z,980.3
2019-04-21T08:05:05.000Z,980.3
2019-04-21T08:07:49.000Z,980.3
2019-04-21T08:09:12.000Z,980.3
2019-04-21T08:10:34.000Z,980.2
2019-04-21T08:11:56.000Z,980.3
2019-04-21T08:13:09.000Z,980.3
2019-04-21T08:14:22.000Z,980.3
2019-04-21T08:15:44.000Z,980.3
2019-04-21T08:17:07.000Z,980.3
2019-04-21T08:18:29.000Z,980.3
2019-04-21T08:19:51.000Z,980.3
2019-04-21T08:21:14.000Z,980.3
2019-04-21T08:22:36.000Z,980.3
2019-04-21T08:23:58.000Z,980.3
2019-04-21T08:25:21.000Z,980.3
2019-04-21T08:26:43.000Z,980.3
2019-04-21T08:27:56.000Z,980.3
2019-04-21T08:29:09.000Z,980.2
2019-04-21T08:30:31.000Z,980.3
2019-04-21T08:33:16.000Z,980.2
2019-04-21T08:34:38.000Z,980.2
2019-04-21T08:36:01.000Z,980.2
2019-04-21T08:40:08.000Z,980.2
2019-04-21T08:41:30.000Z,980.2
2019-04-21T08:43:56.000Z,980.1
2019-04-21T08:45:18.000Z,980.2
2019-04-21T08:46:40.000Z,980.1
2019-04-21T08:48:03.000Z,980.1
2019-04-21T08:49:25.000Z,980.1
2019-04-21T08:50:47.000Z,980.1
2019-04-21T08:52:10.000Z,980.1
2019-04-21T08:53:32.000Z,980
2019-04-21T08:54:54.000Z,980
2019-04-21T08:56:17.000Z,980
2019-04-21T09:00:05.000Z,980
2019-04-21T09:01:27.000Z,980
2019-04-21T09:02:49.000Z,979.9
2019-04-21T09:04:12.000Z,979.9
2019-04-21T09:05:34.000Z,979.9
2019-04-21T09:06:56.000Z,980
2019-04-21T09:08:19.000Z,979.9
2019-04-21T09:09:41.000Z,979.9
2019-04-21T09:11:03.000Z,979.9
2019-04-21T09:12:16.000Z,979.9
2019-04-21T09:13:29.000Z,979.9
2019-04-21T09:14:52.000Z,979.9
2019-04-21T09:16:14.000Z,979.9
2019-04-21T09:17:36.000Z,979.9
2019-04-21T09:18:59.000Z,979.9
2019-04-21T09:20:21.000Z,979.9
2019-04-21T09:21:43.000Z,979.9
2019-04-21T09:24:28.000Z,979.8
2019-04-21T09:25:50.000Z,979.9
2019-04-21T09:27:03.000Z,979.8
2019-04-21T09:28:16.000Z,979.8
2019-04-21T09:29:38.000Z,979.8
2019-04-21T09:31:01.000Z,979.8
2019-04-21T09:32:23.000Z,979.8
2019-04-21T09:33:45.000Z,979.7
2019-04-21T09:35:08.000Z,979.8
2019-04-21T09:36:30.000Z,979.7
2019-04-21T09:37:52.000Z,979.7
2019-04-21T09:39:15.000Z,979.7
2019-04-21T09:40:37.000Z,979.6
2019-04-21T09:41:50.000Z,979.6
2019-04-21T09:43:03.000Z,979.6
2019-04-21T09:44:25.000Z,979.6
2019-04-21T09:45:47.000Z,979.6
2019-04-21T09:47:10.000Z,979.6
2019-04-21T09:48:32.000Z,979.6
2019-04-21T09:49:54.000Z,979.6
2019-04-21T09:51:17.000Z,979.6
2019-04-21T09:52:39.000Z,979.6
2019-04-21T09:54:01.000Z,979.6
2019-04-21T09:57:50.000Z,979.5
2019-04-21T10:00:34.000Z,979.5
2019-04-21T10:01:57.000Z,979.4
2019-04-21T10:03:19.000Z,979.4
2019-04-21T10:06:04.000Z,979.4
2019-04-21T10:07:26.000Z,979.4
2019-04-21T10:08:48.000Z,979.4
2019-04-21T10:10:10.000Z,979.3
2019-04-21T10:12:36.000Z,979.3
2019-04-21T10:13:59.000Z,979.3
2019-04-21T10:15:21.000Z,979.3
2019-04-21T10:16:43.000Z,979.2
2019-04-21T10:18:06.000Z,979.2
2019-04-21T10:19:28.000Z,979.2
2019-04-21T10:20:50.000Z,979.2
2019-04-21T10:22:13.000Z,979.2
2019-04-21T10:23:35.000Z,979.2
2019-04-21T10:24:57.000Z,979.1
2019-04-21T10:26:10.000Z,979.1
2019-04-21T10:27:23.000Z,979.1
2019-04-21T10:28:45.000Z,979.1
2019-04-21T10:30:08.000Z,979
2019-04-21T10:31:30.000Z,979
2019-04-21T10:32:52.000Z,979
2019-04-21T10:34:15.000Z,979
2019-04-21T10:35:37.000Z,978.9
2019-04-21T10:36:59.000Z,979
2019-04-21T10:38:22.000Z,978.9
2019-04-21T10:39:44.000Z,978.9
2019-04-21T10:40:57.000Z,978.9
2019-04-21T10:42:10.000Z,978.9
2019-04-21T10:43:32.000Z,978.9
2019-04-21T10:44:55.000Z,978.9
2019-04-21T10:46:17.000Z,978.8
2019-04-21T10:47:39.000Z,978.8
2019-04-21T10:49:02.000Z,978.8
2019-04-21T10:50:24.000Z,978.8
2019-04-21T10:51:46.000Z,978.8
2019-04-21T10:53:08.000Z,978.8
2019-04-21T10:54:31.000Z,978.7
2019-04-21T10:55:44.000Z,978.7
2019-04-21T10:58:19.000Z,978.7
2019-04-21T10:59:41.000Z,978.6
2019-04-21T11:01:04.000Z,978.7
2019-04-21T11:02:26.000Z,978.6
2019-04-21T11:03:48.000Z,978.6
2019-04-21T11:06:33.000Z,978.6
2019-04-21T11:07:55.000Z,978.5
2019-04-21T11:10:31.000Z,978.5
2019-04-21T11:11:43.000Z,978.5
2019-04-21T11:13:06.000Z,978.5
2019-04-21T11:14:28.000Z,978.5
2019-04-21T11:15:50.000Z,978.5
2019-04-21T11:18:35.000Z,978.4
2019-04-21T11:19:57.000Z,978.4
2019-04-21T11:21:20.000Z,978.4
2019-04-21T11:24:04.000Z,978.4
2019-04-21T11:26:30.000Z,978.4
2019-04-21T11:29:15.000Z,978.3
2019-04-21T11:30:37.000Z,978.3
2019-04-21T11:32:00.000Z,978.3
2019-04-21T11:33:22.000Z,978.3
2019-04-21T11:34:44.000Z,978.3
2019-04-21T11:36:06.000Z,978.3
2019-04-21T11:37:29.000Z,978.3
2019-04-21T11:38:51.000Z,978.3
2019-04-21T11:40:04.000Z,978.3
2019-04-21T11:41:17.000Z,978.3
2019-04-21T11:42:39.000Z,978.2
2019-04-21T11:44:02.000Z,978.2
2019-04-21T11:46:46.000Z,978.2
2019-04-21T11:48:09.000Z,978.2
2019-04-21T11:50:53.000Z,978.1
2019-04-21T11:52:16.000Z,978.1
2019-04-21T11:53:38.000Z,978.1
2019-04-21T11:54:51.000Z,978
2019-04-21T11:56:04.000Z,978
2019-04-21T11:57:26.000Z,978
2019-04-21T12:00:11.000Z,978
2019-04-21T12:01:33.000Z,977.9
2019-04-21T12:02:55.000Z,977.9
2019-04-21T12:04:18.000Z,977.9
2019-04-21T12:05:40.000Z,977.9
2019-04-21T12:07:02.000Z,977.9
2019-04-21T12:08:25.000Z,977.9
2019-04-21T12:09:38.000Z,977.9
2019-04-21T12:10:51.000Z,977.9
2019-04-21T12:12:13.000Z,977.9
2019-04-21T12:13:35.000Z,977.9
2019-04-21T12:14:58.000Z,977.8
2019-04-21T12:19:04.000Z,977.8
2019-04-21T12:21:49.000Z,977.7
2019-04-21T12:23:11.000Z,977.7
2019-04-21T12:25:37.000Z,977.7
2019-04-21T12:27:00.000Z,977.7
2019-04-21T12:28:22.000Z,977.7
2019-04-21T12:31:07.000Z,977.6
2019-04-21T12:32:29.000Z,977.6
2019-04-21T12:35:14.000Z,977.6
2019-04-21T12:36:36.000Z,977.6
2019-04-21T12:40:24.000Z,977.5
2019-04-21T12:41:46.000Z,977.5
2019-04-21T12:44:31.000Z,977.4
2019-04-21T12:45:53.000Z,977.4
2019-04-21T12:47:16.000Z,977.4
2019-04-21T12:48:38.000Z,977.4
2019-04-21T12:50:00.000Z,977.4
2019-04-21T12:51:23.000Z,977.3
2019-04-21T12:52:45.000Z,977.3
2019-04-21T12:53:58.000Z,977.3
2019-04-21T12:55:11.000Z,977.2
2019-04-21T12:56:33.000Z,977.2
2019-04-21T12:57:56.000Z,977.2
2019-04-21T12:59:18.000Z,977.1
2019-04-21T13:00:40.000Z,977.1
2019-04-21T13:02:02.000Z,977.1
2019-04-21T13:03:25.000Z,977.1
2019-04-21T13:04:47.000Z,977.1
2019-04-21T13:06:09.000Z,977
2019-04-21T13:07:32.000Z,977
2019-04-21T13:08:45.000Z,977
2019-04-21T13:09:58.000Z,977
2019-04-21T13:12:42.000Z,977
2019-04-21T13:14:05.000Z,977
2019-04-21T13:15:27.000Z,976.9
2019-04-21T13:16:49.000Z,976.9
2019-04-21T13:18:12.000Z,976.9
2019-04-21T13:19:34.000Z,976.9
2019-04-21T13:20:56.000Z,976.8
2019-04-21T13:22:19.000Z,976.8
2019-04-21T13:23:31.000Z,976.8
2019-04-21T13:24:44.000Z,976.8
2019-04-21T13:26:07.000Z,976.8
2019-04-21T13:27:29.000Z,976.7
2019-04-21T13:28:51.000Z,976.8
2019-04-21T13:30:14.000Z,976.7
2019-04-21T13:31:36.000Z,976.7
2019-04-21T13:32:58.000Z,976.7
2019-04-21T13:34:21.000Z,976.7
2019-04-21T13:35:43.000Z,976.7
2019-04-21T13:37:05.000Z,976.7
2019-04-21T13:38:18.000Z,976.6
2019-04-21T13:39:31.000Z,976.6
2019-04-21T13:40:54.000Z,976.6
2019-04-21T13:42:16.000Z,976.6
2019-04-21T13:43:38.000Z,976.6
2019-04-21T13:46:23.000Z,976.6
2019-04-21T13:47:45.000Z,976.5
2019-04-21T13:49:07.000Z,976.5
2019-04-21T13:50:30.000Z,976.5
2019-04-21T13:51:52.000Z,976.5
2019-04-21T13:54:18.000Z,976.4
2019-04-21T13:55:40.000Z,976.4
2019-04-21T13:57:03.104Z,976.4
2019-04-21T13:58:25.000Z,976.4
2019-04-21T13:59:47.000Z,976.3
2019-04-21T14:01:10.000Z,976.3
2019-04-21T14:02:32.000Z,976.3
2019-04-21T14:05:17.000Z,976.3
2019-04-21T14:06:39.000Z,976.3
2019-04-21T14:07:52.000Z,976.3
2019-04-21T14:09:05.000Z,976.2
2019-04-21T14:10:27.000Z,976.3
2019-04-21T14:11:49.000Z,976.3
2019-04-21T14:13:12.000Z,976.2
2019-04-21T14:14:34.000Z,976.2
2019-04-21T14:15:56.000Z,976.2
2019-04-21T14:17:19.000Z,976.2
2019-04-21T14:18:41.000Z,976.1
2019-04-21T14:20:03.000Z,976.1
2019-04-21T14:21:26.000Z,976.1
2019-04-21T14:22:39.000Z,976
2019-04-21T14:23:52.000Z,976.1
2019-04-21T14:25:14.000Z,976.1
2019-04-21T14:26:36.000Z,976.1
2019-04-21T14:27:58.000Z,976.1
2019-04-21T14:30:43.000Z,976.1
2019-04-21T14:32:05.000Z,976
2019-04-21T14:33:28.000Z,976.1
2019-04-21T14:34:50.000Z,976.1
2019-04-21T14:36:12.000Z,976
2019-04-21T14:37:25.000Z,976
2019-04-21T14:38:38.000Z,975.9
2019-04-21T14:40:01.000Z,976
2019-04-21T14:41:23.000Z,976
2019-04-21T14:42:45.000Z,975.9
2019-04-21T14:44:08.000Z,975.9
2019-04-21T14:45:30.000Z,975.9
2019-04-21T14:48:15.000Z,975.9
2019-04-21T14:49:37.000Z,975.9
2019-04-21T14:52:12.000Z,975.8
2019-04-21T14:53:25.000Z,975.8
2019-04-21T14:54:47.000Z,975.8
2019-04-21T14:56:10.000Z,975.8
2019-04-21T14:57:32.000Z,975.8
2019-04-21T14:58:54.000Z,975.7
2019-04-21T15:00:17.000Z,975.8
2019-04-21T15:01:39.000Z,975.7
2019-04-21T15:03:01.000Z,975.7
2019-04-21T15:04:24.000Z,975.7
2019-04-21T15:05:46.000Z,975.7
2019-04-21T15:08:12.000Z,975.7
2019-04-21T15:09:34.000Z,975.7
2019-04-21T15:10:56.000Z,975.6
2019-04-21T15:12:19.000Z,975.7
2019-04-21T15:13:41.000Z,975.7
2019-04-21T15:15:03.000Z,975.6
2019-04-21T15:16:26.000Z,975.6
2019-04-21T15:17:48.000Z,975.6
2019-04-21T15:19:10.000Z,975.6
2019-04-21T15:20:33.000Z,975.6
2019-04-21T15:21:46.000Z,975.5
2019-04-21T15:22:59.000Z,975.5
2019-04-21T15:24:21.000Z,975.5
2019-04-21T15:25:43.000Z,975.5
2019-04-21T15:27:06.000Z,975.5
2019-04-21T15:28:28.000Z,975.5
2019-04-21T15:29:50.000Z,975.5
2019-04-21T15:31:13.000Z,975.5
2019-04-21T15:32:35.000Z,975.4
2019-04-21T15:33:57.000Z,975.4
2019-04-21T15:36:32.000Z,975.4
2019-04-21T15:37:45.000Z,975.4
2019-04-21T15:39:08.000Z,975.4
2019-04-21T15:40:30.000Z,975.4
2019-04-21T15:41:52.000Z,975.4
2019-04-21T15:43:15.000Z,975.4
2019-04-21T15:44:37.000Z,975.4
2019-04-21T15:45:59.000Z,975.4
2019-04-21T15:47:22.000Z,975.4
2019-04-21T15:48:44.000Z,975.3
2019-04-21T15:50:06.000Z,975.3
2019-04-21T15:51:19.000Z,975.2
2019-04-21T15:52:32.000Z,975.3
2019-04-21T15:53:54.000Z,975.3
2019-04-21T15:55:17.000Z,975.2
2019-04-21T15:56:39.000Z,975.2
2019-04-21T15:58:01.000Z,975.2
2019-04-21T15:59:24.000Z,975.2
2019-04-21T16:00:46.000Z,975.2
2019-04-21T16:02:08.000Z,975.2
2019-04-21T16:03:31.000Z,975.1
2019-04-21T16:04:53.000Z,975.2
2019-04-21T16:07:19.000Z,975.1
2019-04-21T16:08:41.000Z,975.1
2019-04-21T16:10:04.000Z,975.1
2019-04-21T16:11:26.000Z,975.1
2019-04-21T16:12:48.000Z,975.1
2019-04-21T16:14:11.000Z,975.1
2019-04-21T16:15:33.000Z,975.1
2019-04-21T16:16:55.000Z,975.1
2019-04-21T16:18:17.000Z,975.1
2019-04-21T16:19:40.000Z,975
2019-04-21T16:22:06.000Z,975
2019-04-21T16:23:28.000Z,975
2019-04-21T16:24:50.000Z,975
2019-04-21T16:26:13.000Z,975
2019-04-21T16:27:35.000Z,975
2019-04-21T16:30:20.000Z,974.9
2019-04-21T16:31:42.000Z,974.9
2019-04-21T16:33:04.000Z,974.9
2019-04-21T16:34:27.000Z,974.9
2019-04-21T16:35:40.000Z,974.9
2019-04-21T16:36:52.000Z,974.9
2019-04-21T16:38:15.000Z,974.9
2019-04-21T16:39:37.000Z,974.9
2019-04-21T16:40:59.000Z,974.9
2019-04-21T16:43:44.000Z,974.9
2019-04-21T16:45:06.000Z,974.9
2019-04-21T16:46:29.000Z,974.8
2019-04-21T16:47:51.000Z,974.8
2019-04-21T16:49:13.000Z,974.8
2019-04-21T16:50:26.000Z,974.8
2019-04-21T16:51:39.000Z,974.8
2019-04-21T16:53:02.000Z,974.8
2019-04-21T16:54:24.000Z,974.7
2019-04-21T16:55:46.000Z,974.7
2019-04-21T16:57:09.000Z,974.7
2019-04-21T16:58:31.000Z,974.6
2019-04-21T17:01:15.000Z,974.6
2019-04-21T17:02:38.000Z,974.6
2019-04-21T17:04:00.000Z,974.5
2019-04-21T17:05:13.000Z,974.6
2019-04-21T17:06:26.000Z,974.5
2019-04-21T17:07:48.000Z,974.5
2019-04-21T17:09:11.000Z,974.5
2019-04-21T17:10:33.000Z,974.5
2019-04-21T17:11:55.000Z,974.5
2019-04-21T17:13:18.000Z,974.5
2019-04-21T17:14:40.000Z,974.5
2019-04-21T17:16:02.000Z,974.5
2019-04-21T17:17:25.000Z,974.5
2019-04-21T17:18:47.000Z,974.5
2019-04-21T17:20:00.000Z,974.5
2019-04-21T17:21:13.000Z,974.5
2019-04-21T17:22:35.000Z,974.4
2019-04-21T17:23:57.000Z,974.5
2019-04-21T17:25:20.000Z,974.4
2019-04-21T17:26:42.000Z,974.4
2019-04-21T17:28:04.000Z,974.4
2019-04-21T17:29:27.000Z,974.4
2019-04-21T17:32:11.000Z,974.4
2019-04-21T17:33:34.000Z,974.4
2019-04-21T17:36:00.000Z,974.4
2019-04-21T17:37:22.000Z,974.4
2019-04-21T17:38:44.000Z,974.4
2019-04-21T17:40:07.000Z,974.4
2019-04-21T17:41:29.000Z,974.4
2019-04-21T17:42:51.000Z,974.4
2019-04-21T17:44:13.000Z,974.4
2019-04-21T17:45:36.000Z,974.4
2019-04-21T17:46:58.000Z,974.4
2019-04-21T17:48:20.000Z,974.5
2019-04-21T17:49:33.000Z,974.5
2019-04-21T17:50:46.000Z,974.5
2019-04-21T17:52:09.000Z,974.5
2019-04-21T17:53:31.000Z,974.5
2019-04-21T17:54:53.000Z,974.5
2019-04-21T17:56:16.000Z,974.6
2019-04-21T17:57:38.000Z,974.5
2019-04-21T17:59:00.000Z,974.6
2019-04-21T18:00:23.000Z,974.5
2019-04-21T18:01:45.000Z,974.6
2019-04-21T18:03:07.000Z,974.6
2019-04-21T18:04:20.000Z,974.6
2019-04-21T18:05:33.000Z,974.6
2019-04-21T18:06:55.000Z,974.6
2019-04-21T18:08:18.000Z,974.6
2019-04-21T18:09:40.000Z,974.6
2019-04-21T18:11:02.000Z,974.6
2019-04-21T18:12:25.000Z,974.7
2019-04-21T18:13:47.000Z,974.7
2019-04-21T18:15:09.000Z,974.6
2019-04-21T18:16:32.000Z,974.7
2019-04-21T18:17:54.000Z,974.7
2019-04-21T18:19:07.000Z,974.7
2019-04-21T18:20:20.000Z,974.6
2019-04-21T18:21:42.000Z,974.6
2019-04-21T18:23:05.000Z,974.6
2019-04-21T18:24:27.000Z,974.7
2019-04-21T18:25:49.000Z,974.6
2019-04-21T18:27:11.000Z,974.6
2019-04-21T18:28:34.000Z,974.6
2019-04-21T18:29:56.000Z,974.6
2019-04-21T18:31:18.000Z,974.6
2019-04-21T18:32:41.000Z,974.6
2019-04-21T18:33:54.000Z,974.6
2019-04-21T18:36:29.000Z,974.7
2019-04-21T18:37:51.000Z,974.7
2019-04-21T18:39:14.000Z,974.6
2019-04-21T18:40:36.000Z,974.7
2019-04-21T18:43:21.000Z,974.6
2019-04-21T18:44:43.000Z,974.7
2019-04-21T18:46:05.000Z,974.7
2019-04-21T18:47:28.000Z,974.8
2019-04-21T18:49:53.000Z,974.8
2019-04-21T18:51:16.000Z,974.8
2019-04-21T18:52:38.000Z,974.8
2019-04-21T18:54:00.000Z,974.8
2019-04-21T18:56:45.000Z,974.8
2019-04-21T18:58:07.000Z,974.8
2019-04-21T19:00:52.000Z,974.8
2019-04-21T19:02:14.000Z,974.8
2019-04-21T19:03:27.000Z,974.8
2019-04-21T19:04:40.000Z,974.8
2019-04-21T19:06:03.000Z,974.8
2019-04-21T19:07:25.000Z,974.8
2019-04-21T19:08:47.000Z,974.8
2019-04-21T19:10:09.000Z,974.8
2019-04-21T19:11:32.000Z,974.8
2019-04-21T19:12:54.000Z,974.8
2019-04-21T19:14:16.000Z,974.8
2019-04-21T19:15:39.000Z,974.8
2019-04-21T19:17:01.000Z,974.8
2019-04-21T19:18:14.000Z,974.8
2019-04-21T19:19:27.000Z,974.8
2019-04-21T19:20:49.000Z,974.8
2019-04-21T19:23:34.000Z,974.8
2019-04-21T19:24:56.000Z,974.7
2019-04-21T19:26:19.000Z,974.8
2019-04-21T19:27:41.000Z,974.7
2019-04-21T19:29:03.000Z,974.8
2019-04-21T19:30:26.000Z,974.8
2019-04-21T19:31:48.000Z,974.8
2019-04-21T19:33:01.000Z,974.8
2019-04-21T19:34:14.000Z,974.7
2019-04-21T19:35:36.000Z,974.7
2019-04-21T19:36:58.000Z,974.8
2019-04-21T19:38:21.000Z,974.8
2019-04-21T19:39:43.000Z,974.8
2019-04-21T19:41:05.000Z,974.8
2019-04-21T19:42:28.000Z,974.8
2019-04-21T19:43:50.000Z,974.8
2019-04-21T19:45:12.000Z,974.8
2019-04-21T19:46:35.000Z,974.8
2019-04-21T19:47:48.000Z,974.8
2019-04-21T19:50:23.000Z,974.7
2019-04-21T19:51:45.000Z,974.7
2019-04-21T19:53:07.000Z,974.7
2019-04-21T19:54:30.000Z,974.6
2019-04-21T19:55:52.000Z,974.7
2019-04-21T19:57:14.000Z,974.7
2019-04-21T19:58:37.000Z,974.6
2019-04-21T19:59:59.000Z,974.6
2019-04-21T20:01:21.000Z,974.6
2019-04-21T20:05:10.000Z,974.6